createdAt,value
2022-10-05T00:00:20.852Z,9.24
2022-10-05T00:03:12.074Z,9.26
2022-10-05T00:05:40.238Z,9.26
2022-10-05T00:08:15.651Z,9.28
2022-10-05T00:10:45.391Z,9.29
2022-10-05T00:13:17.668Z,9.31
2022-10-05T00:15:45.752Z,9.31
2022-10-05T00:18:19.358Z,9.32
2022-10-05T00:20:48.744Z,9.33
2022-10-05T00:23:25.712Z,9.34
2022-10-05T00:25:53.395Z,9.34
2022-10-05T00:28:27.337Z,9.35
2022-10-05T00:30:58.836Z,9.35
2022-10-05T00:33:28.032Z,9.35
2022-10-05T00:35:55.892Z,9.35
2022-10-05T00:38:23.564Z,9.36
2022-10-05T00:40:59.922Z,9.36
2022-10-05T00:43:35.163Z,9.35
2022-10-05T00:46:07.848Z,9.34
2022-10-05T00:49:03.465Z,9.33
2022-10-05T00:51:37.156Z,9.32
2022-10-05T00:54:38.815Z,9.32
2022-10-05T00:57:18.370Z,9.33
2022-10-05T00:59:54.132Z,9.34
2022-10-05T01:02:46.852Z,9.34
2022-10-05T01:05:23.811Z,9.35
2022-10-05T01:08:06.753Z,9.35
2022-10-05T01:10:43.960Z,9.37
2022-10-05T01:13:57.776Z,9.38
2022-10-05T01:16:41.680Z,9.40
2022-10-05T01:19:43.527Z,9.41
2022-10-05T01:22:52.074Z,9.42
2022-10-05T01:25:48.264Z,9.42
2022-10-05T01:28:26.398Z,9.43
2022-10-05T01:30:58.392Z,9.43
2022-10-05T01:33:34.092Z,9.43
2022-10-05T01:36:20.164Z,9.43
2022-10-05T01:38:50.295Z,9.45
2022-10-05T01:41:25.588Z,9.47
2022-10-05T01:44:03.419Z,9.48
2022-10-05T01:46:41.978Z,9.49
2022-10-05T01:49:34.276Z,9.49
2022-10-05T01:52:38.581Z,9.50
2022-10-05T01:55:18.399Z,9.50
2022-10-05T01:58:09.141Z,9.49
2022-10-05T02:01:00.487Z,9.50
2022-10-05T02:03:35.742Z,9.51
2022-10-05T02:06:13.290Z,9.51
2022-10-05T02:08:47.786Z,9.50
2022-10-05T02:11:15.763Z,9.49
2022-10-05T02:13:57.353Z,9.47
2022-10-05T02:16:36.960Z,9.45
2022-10-05T02:19:17.220Z,9.43
2022-10-05T02:21:49.206Z,9.42
2022-10-05T02:24:29.774Z,9.41
2022-10-05T02:26:59.062Z,9.39
2022-10-05T02:29:31.138Z,9.38
2022-10-05T02:32:11.289Z,9.36
2022-10-05T02:34:43.476Z,9.33
2022-10-05T02:37:29.225Z,9.30
2022-10-05T02:40:06.348Z,9.27
2022-10-05T02:43:06.414Z,9.25
2022-10-05T02:45:42.812Z,9.23
2022-10-05T02:48:43.063Z,9.21
2022-10-05T02:51:22.505Z,9.19
2022-10-05T02:54:15.721Z,9.18
2022-10-05T02:57:16.854Z,9.17
2022-10-05T02:59:53.142Z,9.17
2022-10-05T03:02:33.639Z,9.16
2022-10-05T03:05:16.542Z,9.15
2022-10-05T03:07:59.238Z,9.14
2022-10-05T03:10:29.213Z,9.15
2022-10-05T03:13:08.421Z,9.16
2022-10-05T03:15:38.858Z,9.17
2022-10-05T03:18:34.511Z,9.18
2022-10-05T03:21:18.051Z,9.18
2022-10-05T03:24:03.926Z,9.19
2022-10-05T03:26:59.296Z,9.18
2022-10-05T03:29:52.022Z,9.19
2022-10-05T03:32:40.330Z,9.18
2022-10-05T03:35:28.266Z,9.18
2022-10-05T03:38:07.941Z,9.17
2022-10-05T03:40:47.382Z,9.17
2022-10-05T03:43:27.005Z,9.17
2022-10-05T03:46:19.244Z,9.16
2022-10-05T03:49:02.770Z,9.16
2022-10-05T03:51:41.089Z,9.15
2022-10-05T03:54:25.373Z,9.14
2022-10-05T03:57:02.093Z,9.12
2022-10-05T03:59:35.690Z,9.12
2022-10-05T04:02:21.529Z,9.11
2022-10-05T04:04:57.239Z,9.13
2022-10-05T04:07:47.007Z,9.13
2022-10-05T04:10:27.978Z,9.14
2022-10-05T04:13:05.268Z,9.15
2022-10-05T04:15:46.107Z,9.14
2022-10-05T04:18:26.405Z,9.15
2022-10-05T04:21:00.111Z,9.15
2022-10-05T04:23:44.586Z,9.15
2022-10-05T04:26:34.782Z,9.15
2022-10-05T04:29:16.487Z,9.15
2022-10-05T04:31:46.901Z,9.15
2022-10-05T04:34:23.738Z,9.15
2022-10-05T04:37:03.094Z,9.12
2022-10-05T04:39:50.693Z,9.10
2022-10-05T04:42:37.707Z,9.08
2022-10-05T04:45:14.055Z,9.05
2022-10-05T04:48:00.485Z,9.02
2022-10-05T04:51:13.390Z,8.99
2022-10-05T04:53:59.179Z,8.99
2022-10-05T04:56:45.831Z,8.97
2022-10-05T04:59:34.645Z,8.95
2022-10-05T05:02:25.558Z,8.94
2022-10-05T05:05:16.449Z,8.93
2022-10-05T05:07:46.902Z,8.94
2022-10-05T05:11:02.591Z,8.94
2022-10-05T05:14:06.782Z,8.95
2022-10-05T05:16:41.418Z,8.96
2022-10-05T05:19:23.778Z,8.97
2022-10-05T05:22:23.762Z,9.00
2022-10-05T05:25:06.682Z,9.05
2022-10-05T05:27:38.517Z,9.10
2022-10-05T05:30:24.089Z,9.14
2022-10-05T05:33:07.502Z,9.19
2022-10-05T05:35:43.898Z,9.24
2022-10-05T05:38:17.291Z,9.28
2022-10-05T05:40:57.543Z,9.33
2022-10-05T05:43:30.840Z,9.38
2022-10-05T05:46:03.410Z,9.42
2022-10-05T05:48:38.643Z,9.47
2022-10-05T05:51:21.594Z,9.51
2022-10-05T05:53:53.842Z,9.55
2022-10-05T05:56:30.566Z,9.59
2022-10-05T05:59:06.506Z,9.64
2022-10-05T06:01:44.524Z,9.68
2022-10-05T06:04:38.642Z,9.72
2022-10-05T06:07:07.353Z,9.78
2022-10-05T06:09:52.090Z,9.81
2022-10-05T06:12:25.758Z,9.87
2022-10-05T06:15:02.055Z,9.92
2022-10-05T06:17:57.303Z,9.98
2022-10-05T06:20:33.337Z,10.04
2022-10-05T06:23:04.906Z,10.10
2022-10-05T06:25:50.373Z,10.16
2022-10-05T06:28:19.812Z,10.22
2022-10-05T06:31:09.011Z,10.27
2022-10-05T06:33:49.156Z,10.35
2022-10-05T06:36:28.030Z,10.42
2022-10-05T06:38:59.231Z,10.50
2022-10-05T06:41:39.614Z,10.58
2022-10-05T06:44:13.183Z,10.67
2022-10-05T06:46:52.530Z,10.75
2022-10-05T06:50:02.286Z,10.83
2022-10-05T06:52:51.867Z,10.93
2022-10-05T06:55:49.411Z,11.02
2022-10-05T06:58:20.975Z,11.11
2022-10-05T07:00:58.514Z,11.18
2022-10-05T07:03:47.926Z,11.25
2022-10-05T07:06:32.982Z,11.33
2022-10-05T07:09:48.528Z,11.40
2022-10-05T07:12:34.979Z,11.48
2022-10-05T07:15:26.398Z,11.54
2022-10-05T07:18:03.259Z,11.61
2022-10-05T07:20:52.577Z,11.68
2022-10-05T07:23:41.660Z,11.76
2022-10-05T07:26:38.403Z,11.83
2022-10-05T07:29:27.879Z,11.92
2022-10-05T07:32:09.216Z,12.01
2022-10-05T07:34:55.516Z,12.12
2022-10-05T07:37:57.895Z,12.21
2022-10-05T07:40:28.535Z,12.32
2022-10-05T07:43:40.246Z,12.40
2022-10-05T07:46:40.729Z,12.50
2022-10-05T07:49:26.739Z,12.59
2022-10-05T07:52:23.836Z,12.67
2022-10-05T07:55:26.758Z,12.78
2022-10-05T07:57:57.448Z,12.86
2022-10-05T08:00:43.282Z,12.95
2022-10-05T08:03:14.927Z,13.04
2022-10-05T08:05:47.013Z,13.13
2022-10-05T08:08:38.148Z,13.20
2022-10-05T08:11:19.289Z,13.29
2022-10-05T08:14:02.721Z,13.36
2022-10-05T08:16:35.328Z,13.45
2022-10-05T08:19:08.702Z,13.53
2022-10-05T08:21:41.508Z,13.61
2022-10-05T08:24:27.691Z,13.69
2022-10-05T08:27:02.188Z,13.78
2022-10-05T08:29:47.458Z,13.85
2022-10-05T08:32:21.131Z,13.93
2022-10-05T08:35:03.051Z,13.98
2022-10-05T08:37:37.372Z,14.02
2022-10-05T08:40:31.976Z,14.07
2022-10-05T08:43:14.503Z,14.13
2022-10-05T08:45:51.150Z,14.18
2022-10-05T08:48:47.482Z,14.23
2022-10-05T08:51:27.182Z,14.27
2022-10-05T08:54:19.156Z,14.32
2022-10-05T08:57:24.447Z,14.35
2022-10-05T09:00:18.822Z,14.41
2022-10-05T09:03:14.375Z,14.46
2022-10-05T09:06:00.623Z,14.52
2022-10-05T09:08:48.834Z,14.59
2022-10-05T09:11:33.263Z,14.66
2022-10-05T09:14:38.017Z,14.73
2022-10-05T09:17:17.619Z,14.81
2022-10-05T09:20:10.011Z,14.89
2022-10-05T09:22:54.870Z,14.98
2022-10-05T09:25:43.925Z,15.09
2022-10-05T09:28:24.521Z,15.18
2022-10-05T09:31:07.380Z,15.28
2022-10-05T09:34:17.664Z,15.37
2022-10-05T09:37:07.240Z,15.42
2022-10-05T09:39:37.972Z,15.46
2022-10-05T09:42:29.801Z,15.50
2022-10-05T09:45:21.041Z,15.54
2022-10-05T09:48:01.168Z,15.58
2022-10-05T09:50:37.970Z,15.59
2022-10-05T09:53:14.474Z,15.61
2022-10-05T09:55:47.848Z,15.67
2022-10-05T09:58:29.506Z,15.70
2022-10-05T10:01:29.236Z,15.74
2022-10-05T10:04:02.403Z,15.79
2022-10-05T10:07:05.185Z,15.84
2022-10-05T10:09:51.102Z,15.88
2022-10-05T10:12:52.648Z,15.96
2022-10-05T10:15:54.769Z,16.01
2022-10-05T10:18:46.013Z,16.08
2022-10-05T10:21:35.936Z,16.15
2022-10-05T10:24:33.778Z,16.24
2022-10-05T10:27:34.391Z,16.36
2022-10-05T10:30:10.981Z,16.48
2022-10-05T10:32:53.272Z,16.59
2022-10-05T10:35:35.906Z,16.70
2022-10-05T10:38:20.032Z,16.81
2022-10-05T10:41:08.579Z,16.89
2022-10-05T10:43:40.127Z,16.92
2022-10-05T10:46:34.049Z,16.97
2022-10-05T10:49:20.284Z,17.01
2022-10-05T10:52:25.028Z,17.10
2022-10-05T10:55:29.885Z,17.22
2022-10-05T10:58:18.955Z,17.34
2022-10-05T11:01:27.343Z,17.38
2022-10-05T11:04:04.261Z,17.46
2022-10-05T11:06:34.888Z,17.50
2022-10-05T11:09:47.668Z,17.49
2022-10-05T11:12:18.072Z,17.48
2022-10-05T11:15:13.793Z,17.41
2022-10-05T11:17:56.725Z,17.38
2022-10-05T11:21:02.716Z,17.40
2022-10-05T11:23:43.838Z,17.37
2022-10-05T11:26:41.327Z,17.38
2022-10-05T11:29:35.000Z,17.39
2022-10-05T11:32:21.602Z,17.41
2022-10-05T11:35:31.158Z,17.44
2022-10-05T11:38:33.922Z,17.47
2022-10-05T11:41:31.484Z,17.42
2022-10-05T11:44:06.155Z,17.38
2022-10-05T11:46:47.549Z,17.36
2022-10-05T11:49:25.006Z,17.31
2022-10-05T11:52:23.016Z,17.25
2022-10-05T11:55:12.062Z,17.24
2022-10-05T11:58:01.853Z,17.22
2022-10-05T12:00:42.254Z,17.20
2022-10-05T12:03:15.714Z,17.17
2022-10-05T12:06:09.549Z,17.17
2022-10-05T12:09:18.676Z,17.14
2022-10-05T12:12:15.818Z,17.09
2022-10-05T12:15:01.422Z,17.09
2022-10-05T12:18:01.330Z,17.11
2022-10-05T12:20:46.810Z,17.12
2022-10-05T12:23:33.629Z,17.14
2022-10-05T12:26:11.303Z,17.17
2022-10-05T12:28:47.910Z,17.23
2022-10-05T12:31:24.882Z,17.27
2022-10-05T12:34:40.982Z,17.28
2022-10-05T12:37:33.580Z,17.29
2022-10-05T12:40:29.208Z,17.29
2022-10-05T12:43:03.544Z,17.31
2022-10-05T12:46:02.833Z,17.32
2022-10-05T12:48:44.406Z,17.34
2022-10-05T12:51:19.543Z,17.34
2022-10-05T12:54:03.177Z,17.33
2022-10-05T12:56:42.725Z,17.34
2022-10-05T12:59:29.113Z,17.35
2022-10-05T13:02:31.103Z,17.32
2022-10-05T13:05:25.352Z,17.38
2022-10-05T13:07:58.933Z,17.42
2022-10-05T13:11:15.203Z,17.46
2022-10-05T13:14:02.525Z,17.48
2022-10-05T13:16:42.680Z,17.51
2022-10-05T13:19:39.545Z,17.51
2022-10-05T13:22:16.074Z,17.54
2022-10-05T13:25:23.295Z,17.54
2022-10-05T13:28:09.803Z,17.52
2022-10-05T13:30:42.000Z,17.47
2022-10-05T13:33:18.176Z,17.43
2022-10-05T13:36:01.607Z,17.35
2022-10-05T13:38:49.484Z,17.29
2022-10-05T13:41:48.851Z,17.28
2022-10-05T13:44:41.284Z,17.22
2022-10-05T13:47:22.563Z,17.16
2022-10-05T13:49:56.881Z,17.11
2022-10-05T13:52:33.668Z,17.09
2022-10-05T13:55:14.037Z,17.06
2022-10-05T13:57:51.811Z,17.04
2022-10-05T14:00:27.005Z,17.03
2022-10-05T14:02:57.935Z,17.00
2022-10-05T14:05:28.114Z,16.98
2022-10-05T14:08:02.522Z,16.95
2022-10-05T14:10:31.540Z,16.94
2022-10-05T14:13:01.223Z,16.94
2022-10-05T14:15:30.632Z,16.91
2022-10-05T14:17:59.017Z,16.89
2022-10-05T14:20:34.389Z,16.87
2022-10-05T14:23:03.336Z,16.85
2022-10-05T14:25:32.089Z,16.82
2022-10-05T14:28:02.044Z,16.80
2022-10-05T14:30:33.795Z,16.77
2022-10-05T14:33:04.408Z,16.74
2022-10-05T14:35:56.584Z,16.71
2022-10-05T14:38:50.562Z,16.68
2022-10-05T14:41:19.527Z,16.65
2022-10-05T14:44:25.001Z,16.61
2022-10-05T14:46:55.990Z,16.59
2022-10-05T14:49:24.394Z,16.56
2022-10-05T14:51:54.546Z,16.52
2022-10-05T14:54:41.383Z,16.49
2022-10-05T14:57:48.404Z,16.45
2022-10-05T15:00:18.741Z,16.42
2022-10-05T15:03:04.626Z,16.38
2022-10-05T15:05:53.632Z,16.36
2022-10-05T15:08:47.246Z,16.31
2022-10-05T15:11:30.596Z,16.27
2022-10-05T15:14:00.030Z,16.22
2022-10-05T15:16:33.244Z,16.18
2022-10-05T15:19:20.917Z,16.12
2022-10-05T15:21:55.118Z,16.09
2022-10-05T15:24:26.739Z,16.05
2022-10-05T15:27:00.899Z,16.02
2022-10-05T15:29:59.679Z,15.98
2022-10-05T15:33:00.406Z,15.94
2022-10-05T15:35:41.947Z,15.89
2022-10-05T15:38:21.470Z,15.84
2022-10-05T15:40:59.160Z,15.80
2022-10-05T15:43:41.733Z,15.74
2022-10-05T15:46:18.006Z,15.69
2022-10-05T15:49:20.194Z,15.64
2022-10-05T15:52:18.794Z,15.59
2022-10-05T15:55:04.538Z,15.55
2022-10-05T15:57:45.619Z,15.52
2022-10-05T16:00:17.712Z,15.49
2022-10-05T16:02:54.827Z,15.46
2022-10-05T16:06:02.391Z,15.42
2022-10-05T16:08:49.215Z,15.37
2022-10-05T16:11:42.670Z,15.32
2022-10-05T16:14:18.306Z,15.27
2022-10-05T16:17:00.251Z,15.25
2022-10-05T16:19:43.713Z,15.23
2022-10-05T16:22:24.067Z,15.23
2022-10-05T16:25:03.427Z,15.20
2022-10-05T16:28:05.255Z,15.18
2022-10-05T16:31:11.245Z,15.16
2022-10-05T16:33:52.917Z,15.12
2022-10-05T16:36:40.465Z,15.10
2022-10-05T16:39:35.115Z,15.08
2022-10-05T16:42:11.971Z,15.07
2022-10-05T16:44:59.866Z,15.06
2022-10-05T16:47:49.621Z,15.06
2022-10-05T16:50:37.970Z,15.06
2022-10-05T16:53:24.160Z,15.04
2022-10-05T16:56:01.935Z,15.01
2022-10-05T16:58:41.623Z,15.00
2022-10-05T17:01:42.522Z,14.99
2022-10-05T17:04:37.055Z,14.98
2022-10-05T17:07:25.046Z,14.97
2022-10-05T17:10:13.201Z,14.95
2022-10-05T17:13:08.024Z,14.93
2022-10-05T17:16:06.631Z,14.91
2022-10-05T17:18:55.731Z,14.91
2022-10-05T17:21:45.741Z,14.92
2022-10-05T17:24:19.633Z,14.91
2022-10-05T17:26:56.311Z,14.91
2022-10-05T17:29:42.737Z,14.89
2022-10-05T17:32:12.272Z,14.89
2022-10-05T17:35:02.438Z,14.91
2022-10-05T17:37:31.952Z,14.90
2022-10-05T17:39:59.606Z,14.90
2022-10-05T17:42:29.935Z,14.87
2022-10-05T17:45:20.404Z,14.85
2022-10-05T17:48:10.179Z,14.85
2022-10-05T17:51:01.077Z,14.83
2022-10-05T17:54:02.560Z,14.81
2022-10-05T17:56:33.897Z,14.80
2022-10-05T17:59:04.855Z,14.80
2022-10-05T18:01:33.910Z,14.78
2022-10-05T18:04:25.448Z,14.79
2022-10-05T18:07:05.906Z,14.77
2022-10-05T18:09:38.400Z,14.75
2022-10-05T18:12:10.011Z,14.76
2022-10-05T18:14:58.103Z,14.79
2022-10-05T18:18:34.514Z,14.80
2022-10-05T18:21:15.084Z,14.80
2022-10-05T18:23:52.982Z,14.80
2022-10-05T18:26:30.285Z,14.81
2022-10-05T18:30:06.667Z,14.79
2022-10-05T18:32:45.392Z,14.77
2022-10-05T18:35:18.832Z,14.76
2022-10-05T18:37:55.211Z,14.73
2022-10-05T18:40:54.179Z,14.70
2022-10-05T18:43:47.712Z,14.65
2022-10-05T19:00:11.330Z,14.54
2022-10-05T19:03:51.987Z,14.51
2022-10-05T19:07:29.369Z,14.50
2022-10-05T19:10:58.125Z,14.50
2022-10-05T19:14:37.604Z,14.49
2022-10-05T19:17:45.217Z,14.46
2022-10-05T19:21:22.798Z,14.43
2022-10-05T19:24:49.965Z,14.41
2022-10-05T19:28:27.496Z,14.39
2022-10-05T19:32:08.440Z,14.38
2022-10-05T19:35:46.654Z,14.34
2022-10-05T19:39:19.609Z,14.32
2022-10-05T19:42:51.477Z,14.29
2022-10-05T19:46:25.569Z,14.27
2022-10-05T19:49:55.504Z,14.27
2022-10-05T19:53:32.354Z,14.27
2022-10-05T19:57:22.289Z,14.25
2022-10-05T20:00:51.125Z,14.23
2022-10-05T20:04:22.466Z,14.17
2022-10-05T20:07:53.575Z,14.11
2022-10-05T20:11:25.099Z,14.10
2022-10-05T20:14:58.495Z,14.10
2022-10-05T20:18:26.670Z,14.08
2022-10-05T20:21:35.702Z,14.05
2022-10-05T20:25:13.495Z,14.07
2022-10-05T20:28:45.783Z,14.03
2022-10-05T20:32:13.442Z,14.01
2022-10-05T20:35:42.385Z,14.00
2022-10-05T20:39:15.556Z,13.98
2022-10-05T20:57:03.885Z,13.79
2022-10-05T21:00:34.103Z,13.78
2022-10-05T21:04:02.914Z,13.74
2022-10-05T21:07:31.471Z,13.71
2022-10-05T21:11:00.186Z,13.66
2022-10-05T21:14:29.129Z,13.64
2022-10-05T21:17:57.851Z,13.60
2022-10-05T21:38:38.147Z,13.34
2022-10-05T21:42:11.512Z,13.28
2022-10-05T21:45:40.225Z,13.23
2022-10-05T21:49:09.090Z,13.19
2022-10-05T21:52:36.672Z,13.12
2022-10-05T21:56:05.804Z,13.08
2022-10-05T21:59:34.453Z,13.03
2022-10-05T22:03:10.658Z,12.96
2022-10-05T22:06:39.346Z,12.90
2022-10-05T22:10:08.043Z,12.82
2022-10-05T22:13:39.810Z,12.76
2022-10-05T22:17:08.473Z,12.70
2022-10-05T22:20:37.479Z,12.64
2022-10-05T22:24:05.270Z,12.59
2022-10-05T22:27:35.183Z,12.53
2022-10-05T22:31:05.101Z,12.47
2022-10-05T22:34:35.396Z,12.42
2022-10-05T23:22:49.048Z,11.97
